Time;durP1;ratioP1;P1;durP2;ratioP2;P2;SDS_P1;SDS_P2;PMS_P1;PMS_P2;Temp;Humidity;BMP_temperature;BMP_pressure;BME280_temperature;BME280_humidity;BME280_pressure;Samples;Min_cycle;Max_cycle;Signal;HPM_P1;HPM_P2
2022/05/13 08:32:42;;;;;;;6.60;1.73;;;;;;;21.27;42.65;100997.25;4911387;29;20692;-72
2022/05/13 08:35:11;;;;;;;6.20;1.90;;;;;;;21.37;42.36;100994.97;4913199;29;20240;-70
2022/05/13 08:37:48;;;;;;;8.93;2.10;;;;;;;21.46;42.57;100997.47;4921575;29;20694;-70
2022/05/13 08:40:23;;;;;;;8.00;1.90;;;;;;;21.42;42.06;101004.31;4913357;29;20224;-72
2022/05/13 08:42:51;;;;;;;6.77;1.93;;;;;;;21.52;41.94;101004.75;4918727;29;20233;-71
2022/05/13 08:45:21;;;;;;;5.67;1.70;;;;;;;21.58;41.85;101003.91;4909691;29;20227;-71
2022/05/13 08:47:53;;;;;;;9.97;3.77;;;;;;;21.51;42.77;101003.06;4912869;29;20240;-71
2022/05/13 08:50:25;;;;;;;6.53;1.83;;;;;;;21.42;42.33;100998.91;4911669;29;20272;-71
2022/05/13 08:53:08;;;;;;;5.90;1.60;;;;;;;21.40;42.45;101005.34;4912423;29;20210;-70
2022/05/13 08:55:42;;;;;;;6.47;1.73;;;;;;;21.22;41.37;101005.09;4921911;29;20239;-71
2022/05/13 08:58:16;;;;;;;6.40;2.30;;;;;;;21.24;41.83;100997.66;4913835;29;20239;-71
2022/05/13 09:00:46;;;;;;;8.70;1.87;;;;;;;21.42;41.66;101005.16;4915199;29;20230;-71
2022/05/13 09:03:37;;;;;;;4.33;1.43;;;;;;;21.45;42.29;101003.91;4910161;29;20212;-70
2022/05/13 09:06:07;;;;;;;8.27;2.70;;;;;;;21.43;42.24;101005.97;4912661;29;20205;-70
2022/05/13 09:08:44;;;;;;;9.37;1.70;;;;;;;21.59;41.95;101010.97;4917177;29;20224;-70
2022/05/13 09:11:17;;;;;;;7.13;1.57;;;;;;;21.60;40.69;101007.22;4919631;29;20609;-70
2022/05/13 09:13:57;;;;;;;6.60;1.53;;;;;;;21.69;40.55;101024.88;4918408;29;20243;-70
2022/05/13 09:16:41;;;;;;;3.67;1.03;;;;;;;21.66;39.40;101014.50;4914209;29;20264;-70
2022/05/13 09:19:15;;;;;;;5.10;1.33;;;;;;;21.72;39.93;101019.06;4914011;29;20212;-71
2022/05/13 09:21:44;;;;;;;7.70;1.23;;;;;;;21.75;39.76;101021.34;4911790;29;20209;-71
2022/05/13 09:24:12;;;;;;;6.10;1.50;;;;;;;21.78;38.89;101023.63;4911815;29;20227;-71
2022/05/13 09:26:41;;;;;;;6.57;1.43;;;;;;;21.82;38.38;101022.16;4910984;29;20331;-71
2022/05/13 09:29:13;;;;;;;5.47;1.00;;;;;;;21.86;37.89;101022.59;4916768;29;20795;-71
2022/05/13 09:32:04;;;;;;;7.10;1.67;;;;;;;21.97;38.48;101020.13;4912656;29;20240;-71
2022/05/13 09:34:39;;;;;;;7.57;1.57;;;;;;;22.08;38.56;101024.03;4912098;29;20283;-70
2022/05/13 09:37:12;;;;;;;6.93;1.40;;;;;;;22.29;37.88;101028.38;4916494;29;20526;-70
2022/05/13 09:39:44;;;;;;;4.07;1.03;;;;;;;22.47;37.47;101017.72;4910032;29;20580;-70
2022/05/13 09:42:20;;;;;;;3.13;0.90;;;;;;;22.44;36.79;101018.16;4908955;29;20244;-69
2022/05/13 09:44:48;;;;;;;3.83;1.30;;;;;;;22.55;36.79;101012.09;4911271;29;20236;-70
2022/05/13 09:47:24;;;;;;;6.75;1.13;;;;;;;22.64;37.02;101010.81;4913715;29;20272;-70
2022/05/13 09:50:26;;;;;;;4.70;1.40;;;;;;;22.77;36.86;100997.28;4913583;29;20220;-71
2022/05/13 09:52:54;;;;;;;8.48;1.50;;;;;;;22.85;36.92;101001.63;4908868;29;20227;-71
2022/05/13 09:55:27;;;;;;;5.65;1.38;;;;;;;22.81;36.83;101001.19;4912418;29;20296;-71
2022/05/13 09:58:00;;;;;;;6.95;1.30;;;;;;;23.05;36.96;100990.66;4914042;29;20334;-72
2022/05/13 10:00:32;;;;;;;4.43;1.00;;;;;;;23.19;36.65;100997.66;4910765;29;21906;-69
2022/05/13 10:03:10;;;;;;;4.60;1.40;;;;;;;23.06;36.67;100997.72;4918343;29;20256;-70
2022/05/13 10:05:39;;;;;;;6.43;1.27;;;;;;;23.12;36.84;100995.00;4912662;29;20928;-70
2022/05/13 10:08:10;;;;;;;5.50;1.10;;;;;;;23.15;36.47;100993.72;4915211;29;20270;-69
2022/05/13 10:16:17;;;;;;;3.53;1.05;;;;;;;23.36;36.50;100984.44;4912209;29;20204;-69
2022/05/13 10:18:51;;;;;;;5.88;1.10;;;;;;;23.49;35.58;100987.88;4912525;29;20205;-70
2022/05/13 10:21:27;;;;;;;4.88;1.33;;;;;;;23.50;36.11;100981.44;4911212;29;20213;-69
2022/05/13 10:23:59;;;;;;;7.43;1.42;;;;;;;23.37;35.49;100989.63;4910539;29;20235;-71
2022/05/13 10:26:32;;;;;;;3.25;1.00;;;;;;;23.39;36.14;100986.72;4912956;29;20208;-69
2022/05/13 10:29:07;;;;;;;7.20;1.40;;;;;;;23.47;36.68;100984.56;4908532;29;20285;-73
2022/05/13 10:31:40;;;;;;;13.48;1.45;;;;;;;23.51;37.74;100982.25;4907546;29;20271;-71
2022/05/13 10:34:20;;;;;;;4.53;0.90;;;;;;;23.52;36.01;100982.03;4909664;29;20252;-71
2022/05/13 10:36:56;;;;;;;2.95;1.02;;;;;;;23.52;35.54;100982.03;4905618;29;20228;-71
2022/05/13 10:39:37;;;;;;;9.02;1.13;;;;;;;23.65;35.74;100977.59;4909389;29;20218;-70
2022/05/13 10:42:09;;;;;;;5.72;1.63;;;;;;;23.71;35.08;100963.97;4915321;29;20434;-71
2022/05/13 10:44:42;;;;;;;3.72;1.23;;;;;;;23.79;34.91;100971.81;4913680;29;20217;-70
2022/05/13 10:47:16;;;;;;;9.95;1.50;;;;;;;23.92;35.26;100968.97;4910225;29;20671;-70
2022/05/13 10:49:47;;;;;;;6.07;1.23;;;;;;;24.02;34.71;100971.16;4906555;29;20612;-70
2022/05/13 10:52:34;;;;;;;5.68;1.40;;;;;;;24.12;34.33;100959.81;4904895;29;20383;-71
2022/05/13 10:55:07;;;;;;;3.53;1.20;;;;;;;24.30;33.93;100963.38;4906628;29;20836;-71
2022/05/13 10:57:46;;;;;;;4.28;0.98;;;;;;;24.35;33.88;100955.41;4908642;29;20831;-71
2022/05/13 11:00:18;;;;;;;5.60;1.00;;;;;;;24.35;33.16;100950.00;4905737;29;20212;-72
2022/05/13 11:03:15;;;;;;;3.50;0.70;;;;;;;24.58;33.02;100953.88;4905338;29;20217;-71
2022/05/13 11:05:56;;;;;;;2.28;0.90;;;;;;;24.69;32.96;100955.81;4909039;29;20619;-70
2022/05/13 11:08:35;;;;;;;3.60;1.10;;;;;;;24.70;33.22;100950.16;4908887;29;20213;-70
2022/05/13 11:11:23;;;;;;;3.10;0.93;;;;;;;24.72;33.13;100949.91;4907064;29;20593;-69
2022/05/13 11:14:03;;;;;;;4.45;1.10;;;;;;;24.80;33.01;100949.63;4910209;29;20244;-69
2022/05/13 11:16:42;;;;;;;4.85;0.93;;;;;;;24.95;32.12;100955.47;4905002;29;20733;-68
2022/05/13 11:19:22;;;;;;;3.13;1.13;;;;;;;25.02;32.00;100942.63;4907347;29;20205;-69
2022/05/13 11:21:59;;;;;;;4.38;0.95;;;;;;;25.06;32.84;100941.13;4907897;29;20239;-69
2022/05/13 11:27:51;;;;;;;5.40;1.30;;;;;;;25.09;32.43;100940.66;4907766;29;20240;-68
2022/05/13 11:30:21;;;;;;;6.20;1.00;;;;;;;25.29;32.09;100934.91;4909276;29;20204;-67
2022/05/13 11:32:56;;;;;;;4.40;1.10;;;;;;;25.40;31.81;100936.00;4886726;29;20305;-67
2022/05/13 11:35:38;;;;;;;2.67;1.30;;;;;;;25.57;30.20;100936.13;4889430;29;20208;-71
2022/05/13 11:38:17;;;;;;;2.95;1.00;;;;;;;25.59;30.51;100934.88;4891505;29;20220;-69
2022/05/13 11:40:56;;;;;;;4.93;1.20;;;;;;;25.30;30.68;100933.03;4891686;29;20202;-70
2022/05/13 11:43:50;;;;;;;6.10;1.02;;;;;;;25.26;29.99;100924.50;4888685;29;20214;-70
2022/05/13 11:46:40;;;;;;;4.95;0.90;;;;;;;25.29;30.88;100923.22;4887415;29;20208;-71
2022/05/13 11:49:18;;;;;;;2.65;0.90;;;;;;;25.19;31.25;100928.41;4887611;29;20245;-71
2022/05/13 11:51:45;;;;;;;5.15;1.10;;;;;;;24.87;31.24;100928.66;4889387;29;20223;-68
2022/05/13 11:54:24;;;;;;;6.93;1.13;;;;;;;24.81;31.08;100926.84;4890535;29;20205;-68
2022/05/13 11:57:21;;;;;;;3.85;0.70;;;;;;;24.78;31.54;100940.88;4896354;29;20217;-69
2022/05/13 11:59:50;;;;;;;2.97;0.90;;;;;;;24.61;30.40;100937.16;4889170;29;20848;-70
2022/05/13 12:02:34;;;;;;;3.38;0.82;;;;;;;24.53;31.17;100934.75;4888344;29;20223;-70
2022/05/13 12:05:26;;;;;;;5.45;1.75;;;;;;;24.52;30.48;100927.69;4890733;29;20212;-69
2022/05/13 12:07:58;;;;;;;3.88;1.20;;;;;;;24.47;30.26;100931.06;4887433;29;20831;-69
2022/05/13 12:10:31;;;;;;;2.42;0.70;;;;;;;24.40;30.78;100929.50;4886778;29;20580;-69
2022/05/13 12:13:10;;;;;;;4.38;0.85;;;;;;;24.41;30.62;100923.03;4884049;29;20862;-69
2022/05/13 12:16:06;;;;;;;2.60;0.90;;;;;;;24.30;30.36;100920.03;4889948;29;20328;-69
2022/05/13 12:18:42;;;;;;;5.13;1.40;;;;;;;24.21;31.53;100921.38;4885415;29;20228;-68
2022/05/13 12:21:22;;;;;;;5.53;1.10;;;;;;;24.16;32.02;100923.91;4884034;29;20675;-69
2022/05/13 12:23:56;;;;;;;2.92;0.80;;;;;;;24.07;32.05;100919.84;4887560;29;20608;-68
2022/05/13 12:26:45;;;;;;;5.20;1.38;;;;;;;24.06;31.91;100923.63;4884367;29;20735;-70
2022/05/13 12:29:20;;;;;;;5.13;1.33;;;;;;;23.90;31.30;100921.50;4886495;29;20790;-70
2022/05/13 12:32:05;;;;;;;4.32;0.80;;;;;;;23.80;31.74;100919.31;4898159;29;20799;-70
2022/05/13 12:37:37;;;;;;;2.65;1.00;;;;;;;23.80;32.23;100926.59;4904461;29;20231;-71
2022/05/13 12:40:13;;;;;;;3.38;0.90;;;;;;;23.73;31.56;100925.84;4907715;29;20227;-71
2022/05/13 12:42:53;;;;;;;4.00;1.05;;;;;;;23.65;31.46;100923.44;4906257;29;20574;-70
2022/05/13 12:45:41;;;;;;;2.80;1.00;;;;;;;23.70;30.08;100919.00;4912139;29;20236;-70
2022/05/13 12:48:16;;;;;;;3.47;1.17;;;;;;;23.66;31.61;100920.47;4902631;29;20266;-71
2022/05/13 12:50:49;;;;;;;2.95;0.77;;;;;;;23.67;31.69;100922.13;4901578;29;20331;-70
2022/05/13 12:53:51;;;;;;;3.20;1.55;;;;;;;23.75;30.03;100919.13;4913304;29;20265;-70
2022/05/13 12:56:28;;;;;;;2.92;0.80;;;;;;;23.58;30.13;100913.47;4917984;29;20211;-70
2022/05/13 12:59:05;;;;;;;3.85;0.70;;;;;;;23.64;30.75;100914.47;4915479;29;20292;-70
2022/05/13 13:01:54;;;;;;;2.92;1.10;;;;;;;23.68;29.99;100917.56;4918249;29;20220;-71
2022/05/13 13:04:26;;;;;;;2.30;0.70;;;;;;;23.72;30.29;100916.91;4913163;29;20259;-73
2022/05/13 13:06:54;;;;;;;2.00;0.68;;;;;;;23.65;30.35;100915.31;4915034;29;20212;-73
2022/05/13 13:09:31;;;;;;;2.92;0.80;;;;;;;23.73;30.64;100912.31;4918961;29;20276;-73
2022/05/13 13:12:12;;;;;;;4.85;1.00;;;;;;;23.83;30.73;100920.75;4913736;29;20701;-72
2022/05/13 13:14:52;;;;;;;2.53;0.73;;;;;;;23.96;30.78;100898.94;4915405;29;20213;-74
2022/05/13 13:17:32;;;;;;;2.45;0.73;;;;;;;23.93;30.80;100902.06;4920534;29;20216;-73
2022/05/13 13:20:04;;;;;;;6.70;1.17;;;;;;;24.07;30.80;100908.19;4912954;29;20255;-70
2022/05/13 13:22:36;;;;;;;2.80;0.90;;;;;;;24.13;30.79;100908.09;4912433;29;20204;-71
2022/05/13 13:25:13;;;;;;;3.00;0.90;;;;;;;24.17;30.95;100905.78;4918033;29;20301;-71
2022/05/13 13:27:47;;;;;;;6.70;1.10;;;;;;;24.17;30.86;100903.06;4915968;29;20212;-71
2022/05/13 13:30:18;;;;;;;6.75;1.15;;;;;;;24.30;31.19;100905.63;4913045;29;20236;-73
2022/05/13 13:32:49;;;;;;;3.22;0.90;;;;;;;24.40;30.98;100900.50;4917339;29;20254;-72
2022/05/13 13:35:28;;;;;;;2.30;0.63;;;;;;;24.45;30.30;100899.84;4917008;29;20219;-71
2022/05/13 13:37:57;;;;;;;10.77;1.30;;;;;;;24.43;31.06;100897.34;4911397;29;20244;-70
2022/05/13 13:40:31;;;;;;;3.58;0.80;;;;;;;24.53;30.23;100894.09;4916758;29;20201;-71
2022/05/13 13:43:13;;;;;;;2.50;1.13;;;;;;;24.57;30.66;100898.00;4908862;29;20216;-72
2022/05/13 13:45:45;;;;;;;3.03;0.52;;;;;;;24.53;31.06;100891.38;4918335;29;20212;-70
2022/05/13 13:48:27;;;;;;;1.58;0.50;;;;;;;24.64;30.15;100901.44;4915032;29;20240;-69
2022/05/13 13:50:55;;;;;;;4.85;0.95;;;;;;;24.67;30.50;100892.84;4914199;29;20213;-69
2022/05/13 13:53:29;;;;;;;2.97;0.82;;;;;;;24.61;30.53;100888.34;4916445;29;20669;-70
2022/05/13 13:56:04;;;;;;;3.72;1.00;;;;;;;24.55;30.63;100886.53;4905336;29;20212;-70
2022/05/13 13:58:56;;;;;;;4.22;0.65;;;;;;;24.53;30.32;100888.69;4915232;29;20204;-71
2022/05/13 14:01:28;;;;;;;3.75;0.95;;;;;;;24.53;30.85;100894.09;4908937;29;20676;-71
2022/05/13 14:04:10;;;;;;;3.58;1.73;;;;;;;24.50;30.63;100884.53;4912216;29;20212;-70
2022/05/13 14:06:41;;;;;;;7.82;0.90;;;;;;;24.46;30.41;100891.44;4907648;29;20213;-71
2022/05/13 14:09:17;;;;;;;4.13;0.85;;;;;;;24.39;30.49;100882.59;4915820;29;20718;-70
2022/05/13 14:11:48;;;;;;;3.63;0.88;;;;;;;24.26;30.16;100888.19;4913582;29;20222;-70
2022/05/13 14:14:35;;;;;;;7.15;1.35;;;;;;;24.26;30.65;100891.72;4910439;29;20726;-69
2022/05/13 14:17:06;;;;;;;4.13;0.80;;;;;;;24.26;30.15;100886.31;4910463;29;20300;-70
2022/05/13 14:19:42;;;;;;;2.75;0.50;;;;;;;24.21;30.09;100888.88;4909431;29;20215;-70
2022/05/13 14:22:10;;;;;;;3.63;1.00;;;;;;;24.16;30.99;100893.28;4912104;29;20280;-70
2022/05/13 14:24:39;;;;;;;4.22;0.88;;;;;;;24.21;29.90;100894.28;4916437;29;20575;-70
2022/05/13 14:27:14;;;;;;;3.63;0.82;;;;;;;24.04;30.25;100886.97;4912575;29;20215;-70
2022/05/13 14:29:43;;;;;;;7.32;1.25;;;;;;;23.94;30.86;100882.06;4911039;29;20227;-72
2022/05/13 14:32:15;;;;;;;6.13;1.23;;;;;;;24.04;29.92;100886.97;4905041;29;20350;-72
2022/05/13 14:34:58;;;;;;;3.00;0.80;;;;;;;23.98;29.88;100881.41;4908231;29;20308;-71
2022/05/13 14:37:32;;;;;;;3.58;1.63;;;;;;;23.90;29.94;100881.72;4913320;29;20358;-72
2022/05/13 14:40:03;;;;;;;1.98;0.70;;;;;;;23.86;30.57;100883.19;4912343;29;20207;-71
2022/05/13 14:42:37;;;;;;;3.67;0.80;;;;;;;23.91;30.47;100879.84;4910926;29;20295;-71
2022/05/13 14:45:18;;;;;;;4.57;0.75;;;;;;;23.83;30.74;100880.97;4906179;29;20209;-71
2022/05/13 14:47:46;;;;;;;3.38;1.00;;;;;;;23.80;30.57;100877.88;4906671;29;20211;-68
2022/05/13 14:50:19;;;;;;;5.80;0.90;;;;;;;23.78;31.24;100879.97;4908078;29;20267;-69
2022/05/13 14:52:50;;;;;;;21.92;1.25;;;;;;;23.70;31.61;100870.25;4908395;29;20240;-66
2022/05/13 14:55:28;;;;;;;4.85;1.10;;;;;;;23.77;32.08;100872.88;4908450;29;20745;-66
2022/05/13 14:57:59;;;;;;;7.65;1.33;;;;;;;23.70;31.45;100874.84;4906995;29;20299;-66
2022/05/13 15:00:30;;;;;;;3.97;0.95;;;;;;;23.76;31.12;100868.53;4908623;29;20288;-67
2022/05/13 15:03:02;;;;;;;6.53;1.17;;;;;;;23.77;32.83;100870.19;4903928;29;20248;-66
2022/05/13 15:05:39;;;;;;;6.35;1.10;;;;;;;23.81;32.59;100874.94;4913536;29;20651;-65
2022/05/13 15:08:39;;;;;;;5.43;1.35;;;;;;;;;;4911927;29;20299;-66
2022/05/13 15:11:08;;;;;;;2.03;1.00;;;;;;;24.05;32.46;100872.38;4907729;29;20229;-67
2022/05/13 15:13:36;;;;;;;5.03;0.80;;;;;;;24.13;31.94;100875.59;4908826;29;20766;-66
2022/05/13 15:16:05;;;;;;;9.38;1.00;;;;;;;24.18;31.63;100881.19;4908592;29;20209;-65
2022/05/13 15:18:36;;;;;;;5.03;1.27;;;;;;;24.21;31.49;100880.72;4910086;29;20898;-65
2022/05/13 15:21:10;;;;;;;5.22;1.30;;;;;;;24.29;31.93;100868.75;4908999;29;20205;-67
2022/05/13 15:23:40;;;;;;;4.22;0.90;;;;;;;24.36;31.33;100875.72;4907485;29;20217;-69
2022/05/13 15:26:09;;;;;;;3.95;0.77;;;;;;;24.38;31.98;100879.06;4905197;29;20223;-64
2022/05/13 15:28:37;;;;;;;4.03;0.90;;;;;;;24.44;31.83;100873.78;4910190;29;20429;-66
2022/05/13 15:31:04;;;;;;;3.35;1.13;;;;;;;24.38;32.21;100884.47;4906501;29;20246;-65
2022/05/13 15:33:32;;;;;;;5.18;0.95;;;;;;;24.20;32.23;100880.94;4914354;29;20255;-67
2022/05/13 15:36:00;;;;;;;1.98;0.82;;;;;;;24.06;31.81;100888.41;4918346;29;20726;-67
2022/05/13 15:38:29;;;;;;;2.70;0.98;;;;;;;24.03;31.45;100880.72;4908253;29;20416;-63
2022/05/13 15:40:57;;;;;;;4.05;1.00;;;;;;;23.97;32.12;100876.22;4908513;29;20212;-65
2022/05/13 15:43:27;;;;;;;2.83;1.05;;;;;;;23.94;32.24;100879.38;4910623;29;20213;-64
2022/05/13 15:45:56;;;;;;;6.60;0.93;;;;;;;23.83;32.13;100877.44;4912256;29;20610;-64
2022/05/13 15:48:24;;;;;;;3.08;0.52;;;;;;;23.77;32.20;100875.59;4915671;29;20232;-64
2022/05/13 15:53:38;;;;;;;7.90;0.80;;;;;;;23.78;31.91;100874.56;4915294;29;20236;-72
2022/05/13 15:56:13;;;;;;;6.85;0.88;;;;;;;23.73;31.99;100880.66;4916374;29;20244;-72
2022/05/13 15:58:42;;;;;;;4.80;1.02;;;;;;;23.61;32.05;100885.97;4914664;29;20773;-72
2022/05/13 16:01:30;;;;;;;3.05;0.80;;;;;;;23.55;32.20;100884.16;4910363;29;20221;-71
2022/05/13 16:03:59;;;;;;;3.80;0.93;;;;;;;23.57;32.40;100887.44;4919202;29;20263;-71
2022/05/13 16:06:27;;;;;;;3.03;0.90;;;;;;;23.53;32.78;100880.00;4911962;29;20268;-71
2022/05/13 16:08:56;;;;;;;4.07;1.00;;;;;;;23.52;32.21;100873.78;4915853;29;20703;-69
2022/05/13 16:11:29;;;;;;;4.75;1.80;;;;;;;23.52;32.95;100884.59;4913183;29;20327;-69
2022/05/13 16:13:57;;;;;;;4.65;1.35;;;;;;;23.52;33.21;100881.91;4917275;29;20246;-74
2022/05/13 16:16:29;;;;;;;2.60;1.30;;;;;;;23.54;32.90;100887.09;4916694;29;20346;-71
2022/05/13 16:19:02;;;;;;;3.05;1.50;;;;;;;23.54;32.79;100882.50;4918008;29;20208;-73
2022/05/13 16:21:35;;;;;;;4.10;1.55;;;;;;;23.55;33.01;100884.16;4916859;29;20620;-73
2022/05/13 16:24:07;;;;;;;2.80;0.90;;;;;;;23.51;32.73;100884.81;4915249;29;20213;-73
2022/05/13 16:26:36;;;;;;;6.05;1.05;;;;;;;23.48;32.87;100883.38;4918317;29;20209;-73
2022/05/13 16:29:04;;;;;;;5.55;0.90;;;;;;;23.47;32.94;100879.00;4910832;29;20706;-72
2022/05/13 16:31:32;;;;;;;5.13;1.20;;;;;;;23.45;33.13;100878.41;4911175;29;20282;-70
2022/05/13 16:34:00;;;;;;;4.45;0.90;;;;;;;23.39;33.16;100879.28;4910326;29;20279;-71
2022/05/13 16:37:41;;;;;;;6.25;0.93;;;;;;;23.41;33.20;100877.16;4907974;29;20208;-70
2022/05/13 16:39:27;;;;;;;4.97;0.95;;;;;;;23.37;33.66;100870.56;4907969;29;20212;-71
2022/05/13 16:41:55;;;;;;;4.88;1.02;;;;;;;23.40;33.48;100874.69;4907585;29;20209;-70
2022/05/13 16:44:23;;;;;;;3.50;0.75;;;;;;;23.43;32.98;100875.06;4908311;29;20312;-72
2022/05/13 16:46:51;;;;;;;2.08;0.85;;;;;;;23.43;33.30;100877.78;4911326;29;20327;-71
2022/05/13 16:49:19;;;;;;;2.10;0.80;;;;;;;23.45;33.39;100878.41;4914357;29;20570;-70
2022/05/13 16:51:47;;;;;;;2.58;0.90;;;;;;;23.43;32.86;100877.78;4918792;29;20677;-71
2022/05/13 16:54:14;;;;;;;4.05;0.90;;;;;;;23.43;33.28;100875.06;4912757;29;20684;-70
2022/05/13 16:56:44;;;;;;;1.58;0.70;;;;;;;23.43;33.57;100871.53;4912951;29;20215;-71
2022/05/13 16:59:12;;;;;;;4.47;0.98;;;;;;;23.40;33.32;100875.50;4910662;29;21232;-71
2022/05/13 17:01:39;;;;;;;7.20;1.25;;;;;;;23.42;33.10;100868.00;4914586;29;20235;-71
2022/05/13 17:04:09;;;;;;;7.63;1.25;;;;;;;23.37;33.10;100872.44;4907557;29;20225;-70
2022/05/13 17:06:37;;;;;;;5.00;1.02;;;;;;;23.31;33.02;100878.75;4909192;29;20220;-71
2022/05/13 17:17:19;;;;;;;2.75;0.60;;;;;;;23.21;33.88;100871.13;4898882;29;20219;-69
2022/05/13 17:19:47;;;;;;;3.03;0.63;;;;;;;23.19;33.69;100867.81;4911993;29;20217;-68
2022/05/13 17:22:15;;;;;;;4.80;0.90;;;;;;;23.17;33.75;100870.72;4906566;29;20244;-71
2022/05/13 17:24:48;;;;;;;3.75;0.60;;;;;;;23.13;33.74;100874.91;4910559;29;20566;-70
2022/05/13 17:27:21;;;;;;;4.97;1.00;;;;;;;23.10;33.99;100875.38;4911849;29;20319;-69
2022/05/13 17:29:50;;;;;;;6.30;1.00;;;;;;;23.08;33.67;100871.22;4911115;29;20339;-70
2022/05/13 17:32:20;;;;;;;3.38;0.70;;;;;;;23.07;33.94;100874.97;4906812;29;20359;-72
2022/05/13 17:34:49;;;;;;;12.32;0.80;;;;;;;22.99;33.52;100877.94;4909687;29;20725;-71
2022/05/13 17:37:23;;;;;;;3.95;0.90;;;;;;;23.01;33.96;100876.69;4913633;29;20233;-71
2022/05/13 17:39:51;;;;;;;5.70;1.25;;;;;;;22.94;33.70;100877.78;4908271;29;20662;-70
2022/05/13 17:42:20;;;;;;;2.40;0.80;;;;;;;22.88;34.42;100880.31;4912984;29;20219;-70
2022/05/13 17:44:53;;;;;;;3.58;1.60;;;;;;;22.83;34.29;100874.75;4910143;29;20208;-70
2022/05/13 17:47:24;;;;;;;3.00;0.90;;;;;;;22.84;34.75;100876.41;4910144;29;20657;-69
2022/05/13 17:49:55;;;;;;;2.15;0.77;;;;;;;22.81;34.88;100882.22;4908605;29;20221;-72
2022/05/13 17:52:24;;;;;;;2.30;0.93;;;;;;;22.77;35.16;100878.31;4910503;29;20241;-72
2022/05/13 17:54:52;;;;;;;5.47;0.93;;;;;;;22.72;35.42;100883.50;4909886;29;20304;-72
2022/05/13 17:57:21;;;;;;;5.90;1.40;;;;;;;22.70;35.41;100882.06;4910311;29;20288;-73
2022/05/13 18:00:01;;;;;;;3.17;1.10;;;;;;;22.68;35.49;100882.31;4907763;29;20217;-73
2022/05/13 18:02:29;;;;;;;6.75;1.20;;;;;;;22.63;35.75;100878.56;4908755;29;20236;-73
2022/05/13 18:04:58;;;;;;;3.33;0.87;;;;;;;22.62;35.75;100888.56;4906549;29;20219;-72
2022/05/13 18:07:28;;;;;;;5.93;1.10;;;;;;;22.57;36.18;100880.28;4908396;29;20643;-70
2022/05/13 18:09:57;;;;;;;5.93;0.88;;;;;;;22.53;35.95;100881.75;4909967;29;20269;-73
2022/05/13 18:12:26;;;;;;;2.83;1.00;;;;;;;22.48;35.79;100887.81;4911206;29;20237;-68
2022/05/13 18:14:54;;;;;;;3.95;1.33;;;;;;;22.42;35.99;100882.44;4910213;29;20627;-69
2022/05/13 18:17:22;;;;;;;6.60;1.25;;;;;;;22.38;36.10;100886.59;4916627;29;20228;-70
2022/05/13 18:19:53;;;;;;;5.07;0.80;;;;;;;22.36;36.55;100886.81;4914907;29;20223;-71
2022/05/13 18:22:21;;;;;;;3.37;0.87;;;;;;;22.32;36.58;100884.78;4914692;29;20205;-72
2022/05/13 18:24:49;;;;;;;6.53;1.10;;;;;;;22.26;36.63;100896.41;4913896;29;20603;-68
2022/05/13 18:27:17;;;;;;;5.57;1.10;;;;;;;22.19;36.58;100892.94;4914345;29;20264;-68
2022/05/13 18:29:47;;;;;;;4.10;0.90;;;;;;;22.15;36.66;100892.53;4913820;29;20239;-69
2022/05/13 18:32:15;;;;;;;3.47;1.10;;;;;;;22.10;36.66;100895.88;4909967;29;20729;-69
2022/05/13 18:34:43;;;;;;;5.10;1.10;;;;;;;22.08;36.59;100894.41;4910686;29;20628;-69
2022/05/13 18:37:13;;;;;;;5.90;1.10;;;;;;;22.06;36.66;100893.81;4911318;29;20221;-68
2022/05/13 18:48:07;;;;;;;4.27;1.20;;;;;;;21.83;36.69;100905.06;4894812;29;20734;-70
2022/05/13 18:50:36;;;;;;;8.50;1.40;;;;;;;21.81;36.95;100907.16;4910173;29;20208;-71
2022/05/13 18:53:05;;;;;;;3.33;0.97;;;;;;;21.76;37.04;100909.63;4909290;29;20260;-71
2022/05/13 18:55:37;;;;;;;6.50;1.30;;;;;;;21.72;37.21;100914.63;4910503;29;20287;-70
2022/05/13 18:58:05;;;;;;;3.07;1.07;;;;;;;21.71;37.01;100920.25;4906781;29;20713;-65
2022/05/13 19:00:36;;;;;;;5.10;1.57;;;;;;;21.64;37.43;100914.00;4907687;29;20323;-69
2022/05/13 19:03:07;;;;;;;4.40;1.33;;;;;;;21.60;37.73;100918.19;4906417;29;20205;-71
2022/05/13 19:05:40;;;;;;;6.27;1.87;;;;;;;21.56;37.93;100911.53;4910956;29;20300;-70
2022/05/13 19:08:08;;;;;;;5.43;1.03;;;;;;;21.65;37.52;100924.59;4906771;29;20508;-70
2022/05/13 19:10:39;;;;;;;4.47;0.97;;;;;;;21.60;37.37;100920.88;4910225;29;20217;-72
2022/05/13 19:13:08;;;;;;;2.70;1.17;;;;;;;21.51;37.27;100922.13;4908849;29;20847;-73
2022/05/13 19:15:39;;;;;;;5.43;1.20;;;;;;;21.40;37.45;100924.41;4908571;29;20213;-73
2022/05/13 19:18:07;;;;;;;3.60;1.17;;;;;;;21.23;37.92;100931.25;4910505;29;20205;-69
2022/05/13 19:20:35;;;;;;;2.97;0.80;;;;;;;21.16;38.08;100925.00;4910409;29;20646;-72
2022/05/13 19:23:03;;;;;;;1.97;0.93;;;;;;;21.11;38.28;100942.84;4907067;29;20209;-69
2022/05/13 19:25:33;;;;;;;3.83;1.33;;;;;;;21.09;38.24;100939.53;4914076;29;20562;-69
2022/05/13 19:28:11;;;;;;;4.13;1.23;;;;;;;21.04;38.53;100937.41;4910926;29;20217;-71
2022/05/13 19:30:40;;;;;;;4.53;1.00;;;;;;;20.98;38.98;100938.25;4910248;29;20227;-71
2022/05/13 19:33:08;;;;;;;3.87;1.00;;;;;;;20.92;38.93;100949.84;4908162;29;20448;-71
2022/05/13 19:35:38;;;;;;;5.77;1.13;;;;;;;20.81;38.69;100947.75;4917664;29;20208;-71
2022/05/13 19:38:18;;;;;;;5.90;1.20;;;;;;;20.77;39.08;100944.63;4911887;29;20248;-71
2022/05/13 19:40:46;;;;;;;1.80;0.77;;;;;;;20.69;38.97;100950.19;4905624;29;20311;-69
2022/05/13 19:43:16;;;;;;;3.67;0.80;;;;;;;20.59;39.19;100947.88;4912110;29;20209;-69
2022/05/13 19:45:53;;;;;;;4.10;1.00;;;;;;;20.56;39.21;100951.00;4913507;29;20315;-71
2022/05/13 19:48:21;;;;;;;5.00;1.00;;;;;;;20.50;39.27;100950.94;4911332;29;20210;-69
2022/05/13 19:50:49;;;;;;;5.27;1.00;;;;;;;20.45;39.17;100956.97;4910372;29;20223;-69
2022/05/13 19:53:19;;;;;;;8.50;1.23;;;;;;;20.41;39.19;100957.53;4909488;29;20299;-69
2022/05/13 19:55:47;;;;;;;4.57;0.90;;;;;;;20.43;39.62;100961.69;4907846;29;20255;-70
2022/05/13 19:58:18;;;;;;;4.17;0.77;;;;;;;20.47;39.30;100962.16;4908820;29;20249;-70
2022/05/13 20:00:48;;;;;;;3.10;0.90;;;;;;;20.52;39.27;100949.72;4913428;29;20227;-71
2022/05/13 20:03:18;;;;;;;6.50;0.93;;;;;;;20.56;39.03;100959.06;4911577;29;20208;-70
2022/05/13 20:11:17;;;;;;;3.87;1.07;;;;;;;20.65;39.18;100960.56;4910542;29;20750;-69
2022/05/13 20:13:46;;;;;;;2.20;0.80;;;;;;;20.62;39.02;100960.97;4905259;29;20716;-71
2022/05/13 20:16:14;;;;;;;5.03;0.80;;;;;;;20.59;38.97;100966.75;4905393;29;20223;-71
2022/05/13 20:18:44;;;;;;;3.40;0.70;;;;;;;20.59;39.28;100966.75;4913514;29;20319;-70
2022/05/13 20:23:59;;;;;;;7.83;0.87;;;;;;;20.56;39.31;100971.72;4906547;29;20205;-70
2022/05/13 20:26:29;;;;;;;2.27;0.77;;;;;;;20.53;39.56;100962.16;4913077;29;20220;-71
2022/05/13 20:29:01;;;;;;;2.67;0.90;;;;;;;20.56;39.50;100966.31;4910491;29;20252;-70
2022/05/13 20:31:31;;;;;;;5.40;0.80;;;;;;;20.50;39.41;100961.72;4907326;29;20945;-69
2022/05/13 20:34:01;;;;;;;2.47;1.03;;;;;;;20.32;39.45;100964.94;4906419;29;20302;-70
2022/05/13 20:36:33;;;;;;;4.70;1.17;;;;;;;20.16;39.77;100965.25;4909386;29;20208;-69
2022/05/13 20:39:01;;;;;;;2.07;0.87;;;;;;;20.13;40.10;100966.50;4906556;29;20217;-69
2022/05/13 20:41:29;;;;;;;7.40;1.13;;;;;;;20.14;39.94;100967.34;4909868;29;20721;-70
2022/05/13 20:43:57;;;;;;;4.33;1.20;;;;;;;20.19;40.08;100963.00;4911838;29;20304;-70
2022/05/13 20:46:28;;;;;;;2.70;0.87;;;;;;;20.27;39.85;100967.41;4912791;29;20232;-70
2022/05/13 20:48:56;;;;;;;1.60;0.80;;;;;;;20.27;40.21;100970.09;4909895;29;20209;-70
2022/05/13 20:51:26;;;;;;;1.63;0.80;;;;;;;20.29;40.26;100973.41;4904641;29;20240;-70
2022/05/13 20:53:54;;;;;;;2.80;1.13;;;;;;;20.30;39.89;100969.72;4909227;29;20237;-70
2022/05/13 20:56:22;;;;;;;4.13;1.33;;;;;;;20.32;40.19;100975.69;4909462;29;20410;-69
2022/05/13 20:58:53;;;;;;;6.80;0.80;;;;;;;20.28;40.57;100979.84;4909530;29;20212;-69
2022/05/13 21:01:21;;;;;;;4.47;0.87;;;;;;;20.27;40.50;100973.63;4911473;29;20208;-69
2022/05/13 21:03:53;;;;;;;3.47;0.93;;;;;;;20.28;40.28;100974.44;4910277;29;20224;-70
2022/05/13 21:06:24;;;;;;;5.23;1.00;;;;;;;20.28;40.47;100974.44;4910310;29;20217;-69